Estación Meteorológica Peña el Pijo (Robertgarden) [ 06/25/17 17:36:56 CEST ]

Fecha Hora Presion(HPa) Temp (°C) Humedad % Rocio (°C) Viento ( m/s) Direccion Lluvia 1Hora(mm) Lluvia 24H(mm) LLuvia Total(mm)
2017-May-06 01:01:47 1006.200 12.3 63 5.4         1390.83
2017-May-06 02:01:52 1006.400 11.7 63 4.9         1390.83
2017-May-06 03:02:39 1006.400 11.8 65 5.4         1390.83
2017-May-06 04:06:09 1006.400 11.4 67 5.5         1390.83
2017-May-06 05:01:45 1006.700 11.0 67 5.1         1390.83
2017-May-06 06:01:48 1007.000 10.4 65 4.1         1390.83
2017-May-06 07:01:44 1007.900 9.3 67 3.5         1390.83
2017-May-06 08:01:34 1008.600 10.1 69 4.5         1390.83
2017-May-06 09:01:27 1009.300 12.3 60 4.8 1.5 NW     1390.83
2017-May-06 10:01:57 1010.000 14.9 53 5.4         1390.83
2017-May-06 11:01:38 1010.200 18.4 42 5.2         1390.83
2017-May-06 12:01:46 1010.400 20.9 35 4.8         1390.83
2017-May-06 13:01:31 1010.400 22.0 33 4.9         1390.83
2017-May-06 14:01:38 1009.900 23.2 30 4.7         1390.83
2017-May-06 15:02:04 1009.800 24.3 28 4.5         1390.83
2017-May-06 16:01:49 1009.500 26.1 26 4.9         1390.83
2017-May-06 17:01:46 1009.200 26.1 27 5.4         1390.83
2017-May-06 18:01:54 1009.100 24.8 29 5.5         1390.83
2017-May-06 19:01:44 1009.100 24.3 29 5.1         1390.83
2017-May-06 20:01:36 1009.400 20.2 35 4.1         1390.83
2017-May-06 21:01:54 1010.200 16.6 43 3.9         1390.83
2017-May-06 22:01:49 1011.200 13.6 54 4.4         1390.83
2017-May-06 23:01:48 1011.800 11.4 63 4.6         1390.83

Temperatura Máxima:26°    Temperatura Mínima:
Presión Máxima:1011.800 Hpa    Presión Mínima:1006.200 Hpa


Volver